createdAt,value
2022-10-31T16:10:47.040Z,17.80
2022-10-31T22:13:37.678Z,35.35
2022-10-31T22:16:06.921Z,37.13
2022-10-31T22:18:33.687Z,40.20
2022-10-31T22:21:07.913Z,41.28
2022-10-31T22:23:34.484Z,44.30
2022-10-31T22:26:05.951Z,44.35
2022-10-31T22:28:33.024Z,44.00
2022-10-31T22:31:03.070Z,44.75
2022-10-31T22:33:29.277Z,44.28
2022-10-31T22:35:55.389Z,43.92
2022-10-31T22:38:21.525Z,45.10
2022-10-31T22:40:47.640Z,46.40
2022-10-31T22:43:13.789Z,46.05
2022-10-31T22:45:39.908Z,46.03
2022-10-31T22:48:06.850Z,45.33
2022-10-31T22:50:32.975Z,46.33
2022-10-31T22:52:59.114Z,44.78
2022-10-31T22:55:25.225Z,45.05
2022-10-31T22:57:51.372Z,47.47
2022-10-31T23:00:18.543Z,49.60
2022-10-31T23:02:44.681Z,47.67
2022-10-31T23:05:10.788Z,45.78
2022-10-31T23:07:36.912Z,50.60
2022-10-31T23:10:03.053Z,51.30
2022-10-31T23:12:48.473Z,51.38
2022-10-31T23:15:14.593Z,50.90
2022-10-31T23:17:40.716Z,52.40
2022-10-31T23:20:07.250Z,52.30
2022-10-31T23:22:33.389Z,53.55
2022-10-31T23:24:59.535Z,54.08
2022-10-31T23:27:25.723Z,54.30
2022-10-31T23:29:54.119Z,54.22
2022-10-31T23:32:22.901Z,54.00
2022-10-31T23:34:51.745Z,56.53
2022-10-31T23:37:20.622Z,57.17
2022-10-31T23:39:47.337Z,55.55
2022-10-31T23:42:13.995Z,55.72
2022-10-31T23:44:40.318Z,55.00
2022-10-31T23:47:06.895Z,55.17
2022-10-31T23:49:33.023Z,56.10
2022-10-31T23:51:59.228Z,56.97
2022-10-31T23:54:26.740Z,54.97
2022-10-31T23:56:53.554Z,57.00
2022-10-31T23:59:19.764Z,58.20
